Time;durP1;ratioP1;P1;durP2;ratioP2;P2;SDS_P1;SDS_P2;PMS_P1;PMS_P2;Temp;Humidity;BMP_temperature;BMP_pressure;BME280_temperature;BME280_humidity;BME280_pressure;Samples;Min_cycle;Max_cycle;Signal;HPM_P1;HPM_P2
2022/08/23 00:01:38;;;;;;;5.22;3.20;;;;;;;24.74;39.73;99498.16;4149685;28;20235;-75
2022/08/23 00:03:41;;;;;;;5.60;4.05;;;;;;;24.59;39.61;99490.69;4146408;28;20257;-74
2022/08/23 00:05:42;;;;;;;5.87;3.80;;;;;;;24.94;38.86;99494.81;4144641;28;20303;-75
2022/08/23 00:07:44;;;;;;;6.13;3.47;;;;;;;25.15;38.32;99506.63;4147428;28;20331;-74
2022/08/23 00:09:46;;;;;;;5.20;3.53;;;;;;;24.59;38.83;99520.59;4145799;28;20241;-75
2022/08/23 00:12:09;;;;;;;5.93;3.50;;;;;;;24.90;38.61;99513.53;4144699;28;20241;-75
2022/08/23 00:14:15;;;;;;;5.38;3.25;;;;;;;24.87;38.50;99519.50;4142888;28;20308;-75
2022/08/23 00:16:17;;;;;;;7.18;3.75;;;;;;;24.50;38.93;99515.63;4149535;28;20292;-74
2022/08/23 00:18:19;;;;;;;4.13;3.05;;;;;;;24.48;38.67;99506.06;4143959;28;20263;-73
2022/08/23 00:20:21;;;;;;;6.32;3.70;;;;;;;24.20;39.28;99513.41;4143116;28;20662;-76
2022/08/23 00:22:22;;;;;;;7.60;3.47;;;;;;;24.15;39.42;99505.19;4145097;28;20875;-72
2022/08/23 00:24:24;;;;;;;4.60;3.33;;;;;;;24.86;38.42;99496.91;4145893;28;20221;-75
2022/08/23 00:26:26;;;;;;;3.88;3.00;;;;;;;24.53;38.68;99499.88;4143517;28;20205;-73
2022/08/23 00:28:30;;;;;;;5.45;3.17;;;;;;;24.88;38.42;99509.44;4143765;28;20197;-75
2022/08/23 00:30:31;;;;;;;4.18;3.53;;;;;;;24.58;38.91;99513.50;4143463;28;20264;-74
2022/08/23 00:32:36;;;;;;;5.97;3.47;;;;;;;24.95;38.22;99510.88;4146093;28;20232;-74
2022/08/23 00:34:39;;;;;;;4.75;3.65;;;;;;;24.10;39.41;99521.41;4143413;28;20248;-74
2022/08/23 00:36:41;;;;;;;7.82;3.60;;;;;;;24.93;38.55;99504.84;4145702;28;20233;-74
2022/08/23 00:38:43;;;;;;;6.50;3.60;;;;;;;24.42;39.17;99509.84;4149567;28;20802;-74
2022/08/23 00:40:49;;;;;;;5.93;3.40;;;;;;;24.00;39.57;99513.16;4147374;28;20779;-76
2022/08/23 00:48:29;;;;;;;5.18;3.40;;;;;;;25.01;38.36;99534.28;4139670;28;20237;-73
2022/08/23 00:50:38;;;;;;;5.63;3.67;;;;;;;24.43;39.49;99522.31;4143925;28;20232;-75
2022/08/23 00:52:56;;;;;;;4.15;3.30;;;;;;;24.76;39.41;99510.41;4148246;28;20240;-74
2022/08/23 00:54:58;;;;;;;6.93;3.10;;;;;;;24.75;39.16;99538.69;4146893;28;20661;-74
2022/08/23 00:57:04;;;;;;;4.68;3.30;;;;;;;24.57;39.41;99515.41;4145605;28;20287;-73
2022/08/23 00:59:06;;;;;;;5.47;3.83;;;;;;;25.01;38.81;99520.69;4144619;28;20659;-73
2022/08/23 01:01:08;;;;;;;7.95;3.72;;;;;;;25.07;38.53;99529.72;4146568;28;20221;-73
2022/08/23 01:03:17;;;;;;;6.25;3.83;;;;;;;24.36;39.70;99527.97;4145136;28;20569;-75
2022/08/23 01:05:27;;;;;;;6.57;3.63;;;;;;;24.40;39.83;99512.00;4144449;28;20254;-75
2022/08/23 01:07:51;;;;;;;5.75;3.90;;;;;;;24.37;39.94;99513.31;4138410;28;20228;-75
2022/08/23 01:09:58;;;;;;;5.35;3.35;;;;;;;25.00;39.38;99515.50;4140779;28;20408;-74
2022/08/23 01:12:14;;;;;;;4.97;3.45;;;;;;;25.26;38.97;99516.50;4140959;28;20279;-74
2022/08/23 01:14:42;;;;;;;4.90;3.53;;;;;;;24.83;39.75;99521.09;4127369;28;20264;-74
2022/08/23 01:16:47;;;;;;;4.63;3.33;;;;;;;24.19;40.99;99521.81;4130849;28;20316;-73
2022/08/23 01:18:50;;;;;;;8.45;3.42;;;;;;;24.61;40.34;99529.28;4130473;28;20234;-74
2022/08/23 01:21:12;;;;;;;5.47;3.10;;;;;;;24.99;39.93;99519.31;4130348;28;20268;-73
2022/08/23 01:23:28;;;;;;;5.78;3.53;;;;;;;25.45;38.90;99516.91;4133682;28;20660;-73
2022/08/23 01:25:31;;;;;;;7.75;3.85;;;;;;;25.37;38.86;99536.47;4133556;28;20283;-73
2022/08/23 01:27:34;;;;;;;5.28;3.40;;;;;;;25.52;38.31;99541.19;4137196;28;20642;-73
2022/08/23 01:29:36;;;;;;;4.88;3.33;;;;;;;25.11;39.13;99547.16;4134604;28;20769;-76
2022/08/23 01:31:37;;;;;;;7.88;3.25;;;;;;;24.33;40.56;99536.66;4140351;28;20303;-73
2022/08/23 01:33:41;;;;;;;6.50;3.22;;;;;;;24.14;40.89;99544.28;4149417;28;20232;-75
2022/08/23 01:35:48;;;;;;;4.85;3.60;;;;;;;23.52;41.91;99529.91;4144502;28;20729;-73
2022/08/23 01:37:50;;;;;;;5.65;3.33;;;;;;;23.43;42.32;99536.81;4146204;28;20221;-73
2022/08/23 01:39:52;;;;;;;5.18;3.50;;;;;;;23.40;42.64;99521.06;4147144;28;20226;-75
2022/08/23 01:41:54;;;;;;;5.93;3.42;;;;;;;23.53;42.35;99511.72;4138172;28;20320;-73
2022/08/23 01:43:55;;;;;;;5.53;3.17;;;;;;;24.28;40.75;99515.66;4144164;28;20714;-76
2022/08/23 01:45:57;;;;;;;5.30;3.25;;;;;;;24.87;39.63;99527.66;4142236;28;20387;-73
2022/08/23 01:47:59;;;;;;;5.57;3.30;;;;;;;24.91;39.31;99539.66;4137391;28;20666;-73
2022/08/23 01:50:02;;;;;;;6.10;3.50;;;;;;;24.97;39.61;99549.50;4144593;28;20706;-73
2022/08/23 01:52:03;;;;;;;5.85;3.83;;;;;;;25.26;39.09;99556.50;4143763;28;20232;-75
2022/08/23 01:54:05;;;;;;;8.02;4.03;;;;;;;25.06;39.38;99558.00;4144742;28;20228;-75
2022/08/23 01:56:07;;;;;;;7.13;4.05;;;;;;;25.13;39.38;99557.78;4146054;28;20236;-75
2022/08/23 01:58:09;;;;;;;4.88;3.63;;;;;;;25.07;39.08;99559.66;4144919;28;20233;-73
2022/08/23 02:00:12;;;;;;;7.18;4.18;;;;;;;24.65;39.84;99553.00;4141069;28;20230;-75
2022/08/23 02:02:14;;;;;;;7.95;3.85;;;;;;;24.61;40.05;99551.03;4142134;28;20616;-74
2022/08/23 02:04:16;;;;;;;6.20;3.72;;;;;;;24.24;40.55;99560.72;4141378;28;20229;-74
2022/08/23 02:06:17;;;;;;;8.13;3.60;;;;;;;24.30;40.26;99545.31;4140299;28;20275;-73
2022/08/23 02:10:40;;;;;;;6.47;3.70;;;;;;;24.29;40.07;99555.38;4148408;28;20307;-75
2022/08/23 02:12:42;;;;;;;4.97;3.75;;;;;;;24.20;40.44;99551.44;4144241;28;20800;-73
2022/08/23 02:14:44;;;;;;;5.35;3.70;;;;;;;24.39;39.91;99548.38;4139862;28;20245;-73
2022/08/23 02:16:51;;;;;;;6.78;3.90;;;;;;;24.24;40.56;99555.28;4144192;28;20241;-73
2022/08/23 02:19:07;;;;;;;6.38;4.32;;;;;;;24.31;40.39;99555.06;4140757;28;20317;-75
2022/08/23 02:21:09;;;;;;;4.28;3.85;;;;;;;24.18;40.51;99556.31;4142377;28;20241;-73
2022/08/23 02:23:11;;;;;;;8.25;4.63;;;;;;;24.41;40.36;99554.38;4139930;28;20771;-73
2022/08/23 02:25:13;;;;;;;6.37;3.77;;;;;;;24.22;40.36;99562.88;4146871;28;20236;-73
2022/08/23 02:27:15;;;;;;;4.80;3.93;;;;;;;24.08;40.63;99559.69;4138995;28;20237;-73
2022/08/23 02:29:20;;;;;;;6.53;3.87;;;;;;;24.13;40.64;99561.66;4141641;28;20717;-74
2022/08/23 02:31:24;;;;;;;7.17;4.27;;;;;;;24.06;40.60;99561.84;4139252;28;20864;-73
2022/08/23 02:33:27;;;;;;;6.73;3.90;;;;;;;23.86;40.77;99570.56;4143084;28;20307;-73
2022/08/23 02:35:28;;;;;;;7.33;4.20;;;;;;;23.57;41.06;99575.34;4141150;28;20904;-76
2022/08/23 02:37:30;;;;;;;7.50;4.03;;;;;;;23.80;40.77;99571.56;4143850;28;20228;-72
2022/08/23 02:39:32;;;;;;;6.23;4.00;;;;;;;23.75;40.80;99574.19;4143118;28;20233;-73
2022/08/23 02:41:34;;;;;;;7.23;4.20;;;;;;;23.71;40.81;99575.78;4145021;28;20232;-75
2022/08/23 02:43:36;;;;;;;4.77;3.90;;;;;;;23.70;40.97;99576.84;4143810;28;20814;-72
2022/08/23 02:45:41;;;;;;;6.33;3.90;;;;;;;23.85;40.61;99574.34;4138662;28;20234;-73
2022/08/23 02:47:44;;;;;;;6.67;4.37;;;;;;;23.71;40.59;99575.78;4148528;28;20233;-75
2022/08/23 02:49:45;;;;;;;6.23;4.13;;;;;;;23.73;40.80;99577.16;4144732;28;20804;-75
2022/08/23 02:51:47;;;;;;;6.93;4.37;;;;;;;24.06;40.01;99574.63;4150426;28;20236;-75
2022/08/23 02:53:49;;;;;;;5.77;4.10;;;;;;;24.05;40.20;99589.25;4141934;28;20279;-75
2022/08/23 02:55:51;;;;;;;6.97;4.20;;;;;;;24.15;40.03;99583.94;4142970;28;20268;-74
2022/08/23 02:57:53;;;;;;;9.40;4.00;;;;;;;24.00;40.23;99598.16;4144575;28;20232;-75
2022/08/23 02:59:54;;;;;;;5.83;3.93;;;;;;;23.77;40.48;99604.63;4139868;28;20722;-74
2022/08/23 03:01:56;;;;;;;5.17;4.00;;;;;;;23.52;41.22;99586.09;4138435;28;20645;-76
2022/08/23 03:03:59;;;;;;;7.57;4.37;;;;;;;23.54;40.76;99590.19;4141044;28;20320;-73
2022/08/23 03:06:00;;;;;;;6.63;4.03;;;;;;;23.88;40.41;99590.13;4142444;28;20233;-74
2022/08/23 03:08:23;;;;;;;6.50;3.90;;;;;;;23.73;40.76;99590.72;4140179;28;20928;-74
2022/08/23 03:10:24;;;;;;;7.30;4.10;;;;;;;23.24;41.41;99595.94;4150098;28;20275;-74
2022/08/23 03:12:27;;;;;;;7.27;3.93;;;;;;;23.46;41.04;99595.22;4138778;28;20267;-74
2022/08/23 03:14:28;;;;;;;5.90;3.90;;;;;;;23.38;41.27;99585.59;4147931;28;20201;-74
2022/08/23 03:16:31;;;;;;;6.57;4.20;;;;;;;23.31;41.47;99579.50;4140322;28;20214;-74
2022/08/23 03:18:35;;;;;;;6.67;4.23;;;;;;;23.63;40.66;99584.34;4141581;28;20275;-73
2022/08/23 03:20:37;;;;;;;6.32;4.13;;;;;;;22.92;41.92;99587.53;4142222;28;20298;-73
2022/08/23 03:22:39;;;;;;;5.27;4.03;;;;;;;22.57;42.63;99572.28;4143068;28;20240;-73
2022/08/23 03:24:49;;;;;;;5.13;4.03;;;;;;;23.12;41.57;99577.06;4142288;28;20247;-73
2022/08/23 03:26:50;;;;;;;5.88;3.85;;;;;;;23.22;41.69;99570.16;4139165;28;20291;-74
2022/08/23 03:28:54;;;;;;;5.50;3.70;;;;;;;22.91;42.02;99577.75;4146979;28;20278;-74
2022/08/23 03:30:57;;;;;;;4.93;3.63;;;;;;;22.01;43.92;99585.50;4145853;28;20232;-74
2022/08/23 03:33:00;;;;;;;6.93;4.27;;;;;;;21.68;44.90;99576.13;4139757;28;20240;-74
2022/08/23 03:35:03;;;;;;;6.63;3.87;;;;;;;22.25;43.75;99562.72;4141909;28;20242;-75
2022/08/23 03:37:11;;;;;;;7.20;4.20;;;;;;;22.16;43.94;99560.63;4140533;28;20233;-75
2022/08/23 03:39:13;;;;;;;7.25;4.10;;;;;;;21.94;44.29;99568.59;4141791;28;20241;-74
2022/08/23 03:41:14;;;;;;;9.52;4.35;;;;;;;22.35;43.49;99559.41;4140945;28;20225;-75
2022/08/23 03:43:17;;;;;;;9.37;4.07;;;;;;;22.27;43.36;99574.13;4144579;28;20237;-74
2022/08/23 03:45:19;;;;;;;6.28;4.35;;;;;;;22.58;42.77;99584.78;4141394;28;20295;-74
2022/08/23 03:47:21;;;;;;;4.57;3.97;;;;;;;22.57;42.76;99588.53;4147843;28;20229;-74
2022/08/23 03:49:24;;;;;;;6.03;3.60;;;;;;;21.97;43.88;99589.78;4140578;28;20251;-75
2022/08/23 03:51:28;;;;;;;5.43;4.00;;;;;;;22.10;44.13;99586.78;4138881;28;20229;-74
2022/08/23 03:53:30;;;;;;;4.32;3.67;;;;;;;22.08;43.98;99591.59;4139734;28;20233;-74
2022/08/23 03:55:32;;;;;;;5.70;3.97;;;;;;;22.54;43.23;99589.00;4144633;28;20237;-75
2022/08/23 03:57:42;;;;;;;7.65;4.20;;;;;;;21.86;44.23;99596.84;4143347;28;20240;-74
2022/08/23 03:59:44;;;;;;;5.27;4.20;;;;;;;22.24;43.38;99604.41;4141220;28;20238;-75
2022/08/23 04:01:46;;;;;;;4.07;3.55;;;;;;;22.43;43.44;99604.25;4138168;28;20241;-75
2022/08/23 04:03:48;;;;;;;7.97;4.03;;;;;;;21.99;43.57;99614.72;4140265;28;20329;-75
2022/08/23 04:05:49;;;;;;;8.97;4.03;;;;;;;22.94;42.08;99602.50;4143277;28;20298;-75
2022/08/23 04:07:51;;;;;;;6.70;4.17;;;;;;;22.63;42.73;99609.25;4144337;28;20237;-75
2022/08/23 04:09:53;;;;;;;5.63;3.90;;;;;;;22.75;42.52;99618.13;4149691;28;20296;-75
2022/08/23 04:11:56;;;;;;;6.33;4.40;;;;;;;23.25;41.58;99632.03;4145707;28;20229;-75
2022/08/23 04:13:58;;;;;;;6.03;4.10;;;;;;;23.28;41.53;99631.53;4141119;28;20613;-74
2022/08/23 04:16:02;;;;;;;9.68;4.00;;;;;;;23.19;41.36;99640.09;4144194;28;20266;-75
2022/08/23 04:18:04;;;;;;;5.07;4.07;;;;;;;23.16;41.50;99639.75;4145708;28;20225;-75
2022/08/23 04:20:07;;;;;;;6.80;4.10;;;;;;;23.32;41.62;99644.38;4148039;28;20237;-75
2022/08/23 04:22:13;;;;;;;8.70;4.50;;;;;;;23.02;42.17;99641.97;4146837;28;20262;-76
2022/08/23 04:24:16;;;;;;;8.90;4.30;;;;;;;23.03;41.78;99651.75;4149919;28;20229;-75
2022/08/23 04:26:18;;;;;;;10.83;4.93;;;;;;;22.99;42.04;99656.00;4142619;28;20323;-75
2022/08/23 04:28:21;;;;;;;5.80;4.30;;;;;;;23.11;42.07;99662.19;4146829;28;20215;-75
2022/08/23 04:30:23;;;;;;;10.27;4.37;;;;;;;22.86;42.50;99659.81;4143927;28;20959;-75
2022/08/23 04:32:26;;;;;;;6.83;4.30;;;;;;;22.49;42.92;99653.94;4142668;28;20213;-75
2022/08/23 04:34:29;;;;;;;6.23;4.33;;;;;;;22.45;43.13;99657.13;4144036;28;20209;-74
2022/08/23 04:36:40;;;;;;;10.77;4.80;;;;;;;22.06;43.75;99659.53;4140845;28;20760;-74
2022/08/23 04:38:50;;;;;;;6.33;4.10;;;;;;;21.77;44.75;99669.44;4146427;28;20632;-74
2022/08/23 04:43:13;;;;;;;6.60;4.30;;;;;;;22.26;43.62;99637.47;4145274;28;20229;-74
2022/08/23 04:45:14;;;;;;;6.60;4.27;;;;;;;22.67;42.89;99640.19;4144775;28;20280;-74
2022/08/23 04:47:16;;;;;;;11.00;4.60;;;;;;;22.76;42.51;99657.75;4149045;28;20287;-74
2022/08/23 04:49:18;;;;;;;6.50;4.23;;;;;;;22.15;43.31;99670.81;4143344;28;20241;-74
2022/08/23 04:51:24;;;;;;;8.87;4.50;;;;;;;21.65;44.97;99658.63;4146044;28;20713;-74
2022/08/23 04:53:29;;;;;;;8.77;4.10;;;;;;;21.77;44.77;99674.03;4142523;28;20225;-74
2022/08/23 04:55:30;;;;;;;6.77;4.30;;;;;;;21.82;44.54;99660.63;4145592;28;20316;-74
2022/08/23 04:57:37;;;;;;;5.67;4.50;;;;;;;21.25;45.45;99670.03;4141784;28;20284;-74
2022/08/23 04:59:38;;;;;;;5.43;3.87;;;;;;;21.50;44.92;99650.09;4141632;28;20303;-74
2022/08/23 05:01:41;;;;;;;6.33;4.23;;;;;;;21.96;44.22;99658.50;4148763;28;20321;-74
2022/08/23 05:03:43;;;;;;;8.87;4.60;;;;;;;21.97;44.73;99662.84;4142365;28;20238;-74
2022/08/23 05:05:45;;;;;;;7.13;4.60;;;;;;;22.23;44.03;99656.91;4149437;28;20510;-75
2022/08/23 05:07:47;;;;;;;6.70;5.20;;;;;;;21.83;44.38;99670.38;4143813;28;20239;-74
2022/08/23 05:09:49;;;;;;;8.70;4.43;;;;;;;21.95;44.09;99676.63;4145119;28;20237;-74
2022/08/23 05:11:50;;;;;;;6.63;4.60;;;;;;;21.83;44.73;99670.38;4146285;28;20367;-75
2022/08/23 05:13:52;;;;;;;8.23;4.82;;;;;;;21.88;44.90;99679.44;4142141;28;20229;-74
2022/08/23 05:15:54;;;;;;;7.53;5.00;;;;;;;22.57;44.31;99669.81;4145843;28;20263;-75
2022/08/23 05:17:58;;;;;;;7.07;4.40;;;;;;;22.18;44.88;99689.31;4142569;28;20644;-74
2022/08/23 05:20:00;;;;;;;8.27;4.63;;;;;;;21.99;45.98;99679.69;4143994;28;20319;-75
2022/08/23 05:22:02;;;;;;;13.60;5.10;;;;;;;22.01;46.00;99683.78;4143651;28;20233;-75
2022/08/23 05:24:03;;;;;;;7.07;5.23;;;;;;;22.56;44.95;99674.41;4148838;28;20263;-76
2022/08/23 05:26:05;;;;;;;10.07;4.90;;;;;;;22.68;44.78;99685.22;4145637;28;20788;-75
2022/08/23 05:28:07;;;;;;;7.83;4.97;;;;;;;22.19;45.91;99695.56;4144041;28;20335;-75
2022/08/23 05:30:10;;;;;;;8.97;5.90;;;;;;;21.97;46.19;99698.88;4143923;28;20701;-74
2022/08/23 05:32:15;;;;;;;9.10;5.40;;;;;;;22.08;46.14;99692.63;4146102;28;20291;-74
2022/08/23 05:34:17;;;;;;;8.47;5.00;;;;;;;22.36;45.98;99688.38;4143570;28;20568;-74
2022/08/23 05:36:23;;;;;;;8.73;4.97;;;;;;;22.73;45.03;99698.06;4137903;28;20251;-74
2022/08/23 05:38:25;;;;;;;9.37;5.40;;;;;;;22.61;45.42;99703.50;4146420;28;20213;-75
2022/08/23 05:40:27;;;;;;;7.43;5.30;;;;;;;22.95;44.73;99709.09;4143317;28;20272;-75
2022/08/23 05:42:28;;;;;;;8.37;5.80;;;;;;;22.96;44.81;99706.13;4141790;28;20464;-74
2022/08/23 05:44:30;;;;;;;7.60;5.40;;;;;;;23.22;44.55;99724.75;4141823;28;20209;-74
2022/08/23 05:46:37;;;;;;;8.30;5.10;;;;;;;22.43;46.15;99716.13;4143584;28;20268;-75
2022/08/23 05:48:42;;;;;;;7.70;5.30;;;;;;;22.39;46.35;99703.31;4146849;28;20245;-74
2022/08/23 05:50:43;;;;;;;9.50;5.80;;;;;;;22.63;45.58;99718.47;4145478;28;20795;-74
2022/08/23 05:52:46;;;;;;;7.77;4.83;;;;;;;22.84;45.13;99721.56;4148181;28;20270;-75
2022/08/23 05:54:51;;;;;;;8.27;4.90;;;;;;;21.60;47.69;99726.09;4144751;28;20264;-73
2022/08/23 05:56:53;;;;;;;11.32;4.88;;;;;;;20.64;49.62;99722.44;4145440;28;20280;-72
2022/08/23 05:58:57;;;;;;;7.10;5.18;;;;;;;20.91;49.13;99712.94;4143160;28;20716;-71
2022/08/23 06:01:00;;;;;;;11.00;5.23;;;;;;;21.96;46.93;99705.31;4139295;28;20599;-76
2022/08/23 06:03:02;;;;;;;8.90;5.50;;;;;;;22.45;46.23;99716.72;4143473;28;20259;-77
2022/08/23 06:05:05;;;;;;;8.07;5.50;;;;;;;22.50;46.15;99724.13;4147461;28;20240;-76
2022/08/23 06:07:08;;;;;;;6.67;5.20;;;;;;;23.14;44.85;99742.25;4144749;28;20295;-73
2022/08/23 06:09:13;;;;;;;9.15;5.03;;;;;;;23.12;44.74;99733.53;4143240;28;20303;-73
2022/08/23 06:11:21;;;;;;;7.73;4.97;;;;;;;22.75;45.53;99742.00;4144108;28;20540;-73
2022/08/23 06:13:22;;;;;;;12.47;4.83;;;;;;;22.42;46.07;99755.16;4142046;28;20513;-73
2022/08/23 06:15:24;;;;;;;10.30;5.03;;;;;;;22.74;45.43;99746.59;4138967;28;20228;-73
2022/08/23 06:17:26;;;;;;;9.93;5.27;;;;;;;22.84;45.21;99759.53;4139978;28;20701;-73
2022/08/23 06:19:28;;;;;;;10.32;4.88;;;;;;;23.27;44.51;99754.69;4144921;28;20576;-73
2022/08/23 06:21:31;;;;;;;11.07;4.83;;;;;;;22.94;45.21;99767.88;4141892;28;20280;-72
2022/08/23 06:23:33;;;;;;;8.82;4.75;;;;;;;22.55;45.10;99785.75;4146519;28;20267;-73
2022/08/23 06:25:37;;;;;;;7.70;4.50;;;;;;;22.95;44.60;99776.88;4143234;28;20222;-73
2022/08/23 06:27:38;;;;;;;9.73;5.10;;;;;;;22.92;44.69;99774.59;4149597;28;20290;-73
2022/08/23 06:29:40;;;;;;;6.30;4.18;;;;;;;23.10;44.72;99765.50;4144343;28;20234;-73
2022/08/23 06:31:45;;;;;;;10.17;4.33;;;;;;;23.15;44.38;99784.59;4142395;28;20310;-74
2022/08/23 06:33:47;;;;;;;8.33;5.10;;;;;;;23.53;43.46;99792.03;4147220;28;20605;-72
2022/08/23 06:35:59;;;;;;;9.90;4.88;;;;;;;23.24;44.45;99798.56;4145089;28;20233;-71
2022/08/23 06:38:05;;;;;;;8.23;4.53;;;;;;;23.03;44.87;99798.19;4137892;28;20264;-70
2022/08/23 06:40:07;;;;;;;9.30;4.32;;;;;;;23.57;43.92;99787.81;4143187;28;20237;-71
2022/08/23 06:42:12;;;;;;;9.35;5.15;;;;;;;23.20;44.75;99798.25;4141790;28;20255;-69
2022/08/23 06:44:34;;;;;;;9.50;5.53;;;;;;;23.98;43.84;99784.97;4133821;28;20320;-71
2022/08/23 06:46:37;;;;;;;9.05;5.55;;;;;;;24.16;43.54;99791.19;4141708;28;20241;-70
2022/08/23 06:48:40;;;;;;;15.77;5.50;;;;;;;23.34;44.75;99799.56;4142905;28;20312;-71
2022/08/23 06:50:42;;;;;;;11.57;5.93;;;;;;;23.08;45.58;99806.41;4140178;28;20245;-71
2022/08/23 06:52:49;;;;;;;8.07;5.97;;;;;;;23.63;44.27;99802.28;4142337;28;20661;-72
2022/08/23 06:54:51;;;;;;;9.65;5.20;;;;;;;23.92;43.82;99805.78;4138093;28;20237;-69
2022/08/23 06:56:54;;;;;;;8.27;5.57;;;;;;;24.30;42.94;99808.84;4140969;28;20253;-69
2022/08/23 06:58:56;;;;;;;9.27;5.40;;;;;;;23.89;43.78;99819.88;4141564;28;20237;-71
2022/08/23 07:01:19;;;;;;;8.63;5.53;;;;;;;22.53;46.73;99823.09;4142661;28;20281;-70
2022/08/23 07:03:41;;;;;;;9.77;6.20;;;;;;;22.99;46.22;99799.72;4140609;28;20328;-70
2022/08/23 07:05:42;;;;;;;10.45;6.07;;;;;;;23.33;45.52;99787.09;4140823;28;20261;-75
2022/08/23 07:07:44;;;;;;;8.15;5.47;;;;;;;24.37;43.30;99784.22;4136860;28;20601;-69
2022/08/23 07:09:46;;;;;;;12.35;5.80;;;;;;;23.93;44.68;99807.44;4147263;28;20282;-70
2022/08/23 07:11:48;;;;;;;6.45;5.28;;;;;;;24.16;43.88;99808.34;4144497;28;20299;-71
2022/08/23 07:13:51;;;;;;;7.50;5.15;;;;;;;23.17;46.23;99815.81;4144387;28;20233;-70
2022/08/23 07:15:58;;;;;;;9.75;5.50;;;;;;;24.40;43.23;99800.84;4141307;28;20695;-70
2022/08/23 07:17:59;;;;;;;12.10;6.15;;;;;;;24.05;43.60;99825.53;4141110;28;20601;-73
2022/08/23 07:20:01;;;;;;;8.93;5.05;;;;;;;23.70;44.94;99826.56;4145501;28;20232;-73
2022/08/23 07:22:05;;;;;;;9.73;5.25;;;;;;;23.38;45.72;99805.34;4140055;28;20722;-77
2022/08/23 07:24:08;;;;;;;6.47;4.90;;;;;;;24.24;44.10;99796.25;4144601;28;20233;-71
2022/08/23 07:26:13;;;;;;;6.38;4.20;;;;;;;23.97;44.44;99812.38;4139763;28;20319;-70
2022/08/23 07:28:15;;;;;;;10.82;4.90;;;;;;;24.58;43.05;99813.34;4147441;28;20279;-70
2022/08/23 07:30:17;;;;;;;6.47;4.53;;;;;;;24.55;43.01;99810.28;4143533;28;20229;-73
2022/08/23 07:32:18;;;;;;;5.75;4.10;;;;;;;24.45;43.59;99816.41;4141443;28;20213;-70
2022/08/23 07:34:21;;;;;;;6.72;4.72;;;;;;;23.89;44.54;99829.88;4143023;28;20248;-72
2022/08/23 07:36:25;;;;;;;8.50;4.60;;;;;;;24.05;44.74;99807.34;4141666;28;20743;-70
2022/08/23 07:38:26;;;;;;;8.13;4.53;;;;;;;24.06;44.72;99809.00;4143511;28;20210;-70
2022/08/23 07:40:31;;;;;;;6.22;4.65;;;;;;;23.97;44.54;99805.03;4141819;28;20788;-68
2022/08/23 07:42:39;;;;;;;6.10;4.25;;;;;;;23.76;45.24;99812.84;4142936;28;20311;-70
2022/08/23 07:44:41;;;;;;;6.50;4.20;;;;;;;24.21;43.75;99803.03;4145451;28;20271;-69
2022/08/23 07:46:44;;;;;;;8.80;4.40;;;;;;;24.66;43.49;99812.06;4148917;28;20295;-71
2022/08/23 07:48:45;;;;;;;9.77;3.85;;;;;;;25.32;42.13;99813.97;4144602;28;20237;-70
2022/08/23 07:50:58;;;;;;;8.07;4.20;;;;;;;24.18;44.10;99838.81;4146561;28;20229;-70
2022/08/23 07:53:02;;;;;;;5.75;4.00;;;;;;;25.23;41.48;99822.59;4139937;28;20349;-70
2022/08/23 07:55:05;;;;;;;5.88;4.10;;;;;;;24.58;42.89;99832.38;4142563;28;20284;-71
2022/08/23 07:57:07;;;;;;;7.50;4.05;;;;;;;25.13;42.34;99833.34;4143927;28;20654;-68
2022/08/23 07:59:10;;;;;;;5.80;4.30;;;;;;;25.01;42.06;99838.94;4142249;28;20264;-70
2022/08/23 08:01:19;;;;;;;8.40;4.50;;;;;;;25.18;42.14;99835.31;4143692;28;20271;-71
2022/08/23 08:03:20;;;;;;;10.07;4.32;;;;;;;25.64;40.98;99835.00;4146377;28;20889;-69
2022/08/23 08:05:22;;;;;;;6.32;3.92;;;;;;;25.78;41.23;99842.50;4147619;28;20315;-70
2022/08/23 08:07:26;;;;;;;7.30;4.20;;;;;;;25.26;42.18;99834.88;4142987;28;20758;-70
2022/08/23 08:09:31;;;;;;;4.97;3.58;;;;;;;25.37;42.03;99833.94;4143740;28;20224;-68
2022/08/23 08:11:33;;;;;;;6.20;3.65;;;;;;;25.79;41.31;99830.53;4142601;28;20229;-71
2022/08/23 08:13:38;;;;;;;5.38;3.20;;;;;;;25.85;41.50;99836.03;4145297;28;20236;-70
2022/08/23 08:15:41;;;;;;;5.65;3.50;;;;;;;26.08;41.27;99843.06;4142519;28;20233;-69
2022/08/23 08:17:46;;;;;;;5.95;3.38;;;;;;;25.36;42.85;99842.38;4143402;28;20744;-73
2022/08/23 08:19:47;;;;;;;6.00;3.42;;;;;;;25.57;42.39;99835.22;4144143;28;20233;-70
2022/08/23 08:21:50;;;;;;;5.35;3.00;;;;;;;25.81;42.11;99819.38;4144486;28;20295;-75
2022/08/23 08:23:52;;;;;;;4.60;3.50;;;;;;;25.90;42.47;99827.91;4142314;28;20673;-73
2022/08/23 08:26:06;;;;;;;6.43;3.25;;;;;;;25.42;43.59;99836.72;4140853;28;20230;-69
2022/08/23 08:28:07;;;;;;;5.07;2.83;;;;;;;25.50;42.74;99821.00;4141530;28;20811;-71
2022/08/23 08:30:16;;;;;;;4.57;2.50;;;;;;;26.02;41.95;99820.41;4142502;28;20217;-70
2022/08/23 08:32:17;;;;;;;3.60;2.75;;;;;;;25.81;42.62;99827.53;4141652;28;20248;-72
2022/08/23 08:34:19;;;;;;;3.90;2.65;;;;;;;25.69;43.09;99824.16;4141574;28;20212;-72
2022/08/23 08:36:30;;;;;;;4.25;2.53;;;;;;;25.84;42.96;99824.31;4143082;28;20201;-76
2022/08/23 08:38:36;;;;;;;5.20;2.15;;;;;;;25.69;42.77;99829.63;4142793;28;20213;-69
2022/08/23 08:40:59;;;;;;;5.25;2.40;;;;;;;26.00;42.50;99827.19;4141961;28;20240;-68
2022/08/23 08:43:29;;;;;;;7.00;2.25;;;;;;;26.15;42.34;99822.69;4141785;28;20259;-69
2022/08/23 08:46:06;;;;;;;5.47;2.60;;;;;;;26.03;43.18;99818.50;4143391;28;20244;-71
2022/08/23 08:48:13;;;;;;;7.22;2.38;;;;;;;26.12;42.15;99836.03;4140630;28;20240;-68
2022/08/23 08:50:25;;;;;;;3.92;2.20;;;;;;;26.28;42.79;99826.03;4141699;28;20229;-75
2022/08/23 08:52:34;;;;;;;7.70;1.88;;;;;;;26.73;41.71;99835.63;4139952;28;20209;-66
2022/08/23 08:54:38;;;;;;;7.88;2.53;;;;;;;26.93;41.05;99834.09;4140675;28;20268;-68
2022/08/23 08:56:48;;;;;;;5.55;2.75;;;;;;;26.86;40.89;99848.78;4143540;28;20237;-69
2022/08/23 08:58:54;;;;;;;4.43;2.63;;;;;;;26.34;42.07;99839.44;4151509;28;20232;-68
2022/08/23 09:00:57;;;;;;;5.00;2.38;;;;;;;26.61;41.59;99837.75;4159015;28;20306;-68
2022/08/23 09:03:03;;;;;;;5.57;2.78;;;;;;;26.84;41.29;99844.66;4150157;28;20249;-67
2022/08/23 09:05:11;;;;;;;6.03;2.50;;;;;;;26.87;42.11;99839.50;4159210;28;20244;-69
2022/08/23 09:07:43;;;;;;;5.00;2.20;;;;;;;27.17;40.88;99834.47;4156808;28;20266;-74
2022/08/23 09:10:14;;;;;;;4.75;2.15;;;;;;;26.50;41.63;99851.31;4153284;28;20930;-68
2022/08/23 09:12:41;;;;;;;5.72;2.63;;;;;;;26.70;41.25;99847.88;4159210;28;20228;-68
2022/08/23 09:15:13;;;;;;;7.95;2.70;;;;;;;27.35;41.19;99850.34;4152174;28;20295;-68
2022/08/23 09:17:20;;;;;;;7.95;2.30;;;;;;;26.87;41.41;99844.94;4146727;28;20237;-76
2022/08/23 09:19:23;;;;;;;4.22;2.20;;;;;;;27.01;40.71;99839.84;4143765;28;20233;-75
2022/08/23 09:21:26;;;;;;;7.45;2.22;;;;;;;26.87;41.40;99846.88;4143224;28;20299;-74
2022/08/23 09:23:39;;;;;;;6.20;2.42;;;;;;;27.29;41.08;99839.69;4156357;28;20679;-75
2022/08/23 09:25:50;;;;;;;3.33;2.00;;;;;;;28.03;40.02;99823.97;4154854;28;20705;-77
2022/08/23 09:27:52;;;;;;;4.47;2.30;;;;;;;27.35;40.22;99855.00;4135580;28;20294;-75
2022/08/23 09:29:57;;;;;;;5.35;2.17;;;;;;;27.73;40.36;99836.53;4135702;28;20234;-73
2022/08/23 09:32:02;;;;;;;4.38;2.28;;;;;;;27.77;39.58;99841.19;4136130;28;20245;-66
2022/08/23 09:34:05;;;;;;;5.57;2.63;;;;;;;27.30;40.04;99861.28;4157348;28;20260;-66
2022/08/23 09:36:22;;;;;;;6.07;2.50;;;;;;;27.81;39.59;99834.06;4151932;28;20616;-68
2022/08/23 09:38:25;;;;;;;4.57;2.20;;;;;;;27.57;39.68;99850.13;4122688;28;20298;-66
2022/08/23 09:40:32;;;;;;;5.50;2.70;;;;;;;27.87;39.42;99853.19;4143539;28;20736;-66
2022/08/23 09:42:38;;;;;;;6.10;2.30;;;;;;;28.23;38.85;99845.03;4142896;28;20209;-66
2022/08/23 09:44:42;;;;;;;5.25;2.45;;;;;;;28.19;38.88;99842.00;4139664;28;20249;-67
2022/08/23 09:46:44;;;;;;;5.45;2.40;;;;;;;28.34;38.63;99846.66;4149469;28;20356;-66
2022/08/23 09:48:45;;;;;;;6.28;2.33;;;;;;;27.82;39.19;99845.84;4129712;28;20264;-70
2022/08/23 09:50:53;;;;;;;4.60;2.65;;;;;;;28.31;38.41;99839.00;4149832;28;20233;-70
2022/08/23 09:53:22;;;;;;;3.92;2.50;;;;;;;28.90;38.05;99827.38;4137389;28;20248;-72
2022/08/23 09:55:34;;;;;;;7.78;2.70;;;;;;;28.28;38.38;99843.13;4142707;28;20237;-72
2022/08/23 09:57:37;;;;;;;5.78;2.35;;;;;;;28.20;38.36;99838.19;4133526;28;20260;-70